sensor_id;sensor_type;location;lat;lon;timestamp;temperature;humidity
4749;DHT22;2388;53.582;9.962;2024-01-07T00:01:47;-0.10;99.90
4749;DHT22;2388;53.582;9.962;2024-01-07T00:04:15;-0.10;99.90
4749;DHT22;2388;53.582;9.962;2024-01-07T00:06:40;-0.20;99.90
4749;DHT22;2388;53.582;9.962;2024-01-07T00:09:06;-0.10;99.90
4749;DHT22;2388;53.582;9.962;2024-01-07T00:11:31;-0.20;99.90
4749;DHT22;2388;53.582;9.962;2024-01-07T00:13:57;-0.30;99.90
4749;DHT22;2388;53.582;9.962;2024-01-07T00:16:23;-0.30;99.90
4749;DHT22;2388;53.582;9.962;2024-01-07T00:18:49;-0.30;99.90
4749;DHT22;2388;53.582;9.962;2024-01-07T00:21:14;-0.40;99.90
4749;DHT22;2388;53.582;9.962;2024-01-07T00:23:40;-0.40;99.90
4749;DHT22;2388;53.582;9.962;2024-01-07T00:26:05;-0.40;99.90
4749;DHT22;2388;53.582;9.962;2024-01-07T00:28:31;-0.40;99.90
4749;DHT22;2388;53.582;9.962;2024-01-07T00:30:57;-0.40;99.90
4749;DHT22;2388;53.582;9.962;2024-01-07T00:33:22;-0.40;99.90
4749;DHT22;2388;53.582;9.962;2024-01-07T00:35:48;-0.40;99.90
4749;DHT22;2388;53.582;9.962;2024-01-07T00:38:13;-0.50;99.90
4749;DHT22;2388;53.582;9.962;2024-01-07T00:40:39;-0.40;99.90
4749;DHT22;2388;53.582;9.962;2024-01-07T00:43:04;-0.40;99.90
4749;DHT22;2388;53.582;9.962;2024-01-07T00:45:29;-0.40;99.90
4749;DHT22;2388;53.582;9.962;2024-01-07T00:47:55;-0.40;99.90
4749;DHT22;2388;53.582;9.962;2024-01-07T00:50:20;-0.40;99.90
4749;DHT22;2388;53.582;9.962;2024-01-07T00:52:46;-0.40;99.90
4749;DHT22;2388;53.582;9.962;2024-01-07T00:55:11;-0.40;99.90
4749;DHT22;2388;53.582;9.962;2024-01-07T00:57:37;-0.40;99.90
4749;DHT22;2388;53.582;9.962;2024-01-07T01:00:06;-0.40;99.90
4749;DHT22;2388;53.582;9.962;2024-01-07T01:02:32;-0.50;99.90
4749;DHT22;2388;53.582;9.962;2024-01-07T01:04:57;-0.40;99.90
4749;DHT22;2388;53.582;9.962;2024-01-07T01:07:23;-0.50;99.90
4749;DHT22;2388;53.582;9.962;2024-01-07T01:09:48;-0.50;99.90
4749;DHT22;2388;53.582;9.962;2024-01-07T01:12:14;-0.50;99.90
4749;DHT22;2388;53.582;9.962;2024-01-07T01:14:40;-0.50;99.90
4749;DHT22;2388;53.582;9.962;2024-01-07T01:17:06;-0.40;99.90
4749;DHT22;2388;53.582;9.962;2024-01-07T01:19:32;-0.40;99.90
4749;DHT22;2388;53.582;9.962;2024-01-07T01:21:57;-0.50;99.90
4749;DHT22;2388;53.582;9.962;2024-01-07T01:24:22;-0.50;99.90
4749;DHT22;2388;53.582;9.962;2024-01-07T01:26:48;-0.50;99.90
4749;DHT22;2388;53.582;9.962;2024-01-07T01:29:14;-0.50;99.90
4749;DHT22;2388;53.582;9.962;2024-01-07T01:31:39;-0.50;99.90
4749;DHT22;2388;53.582;9.962;2024-01-07T01:34:04;-0.50;99.90
4749;DHT22;2388;53.582;9.962;2024-01-07T01:36:33;-0.40;99.90
4749;DHT22;2388;53.582;9.962;2024-01-07T01:38:58;-0.50;99.90
4749;DHT22;2388;53.582;9.962;2024-01-07T01:41:24;-0.50;99.90
4749;DHT22;2388;53.582;9.962;2024-01-07T01:43:49;-0.60;99.90
4749;DHT22;2388;53.582;9.962;2024-01-07T01:46:15;-0.50;99.90
4749;DHT22;2388;53.582;9.962;2024-01-07T01:48:41;-0.50;99.90
4749;DHT22;2388;53.582;9.962;2024-01-07T01:51:08;-0.50;99.90
4749;DHT22;2388;53.582;9.962;2024-01-07T01:53:34;-0.50;99.90
4749;DHT22;2388;53.582;9.962;2024-01-07T01:56:01;-0.50;99.90
4749;DHT22;2388;53.582;9.962;2024-01-07T01:58:29;-0.50;99.90
4749;DHT22;2388;53.582;9.962;2024-01-07T02:00:55;-0.40;99.90
4749;DHT22;2388;53.582;9.962;2024-01-07T02:03:20;-0.50;99.90
4749;DHT22;2388;53.582;9.962;2024-01-07T02:05:48;-0.50;99.90
4749;DHT22;2388;53.582;9.962;2024-01-07T02:08:14;-0.50;99.90
4749;DHT22;2388;53.582;9.962;2024-01-07T02:10:40;-0.50;99.90
4749;DHT22;2388;53.582;9.962;2024-01-07T02:13:06;-0.50;99.90
4749;DHT22;2388;53.582;9.962;2024-01-07T02:15:31;-0.50;99.90
4749;DHT22;2388;53.582;9.962;2024-01-07T02:17:57;-0.50;99.90
4749;DHT22;2388;53.582;9.962;2024-01-07T02:20:23;-0.50;99.90
4749;DHT22;2388;53.582;9.962;2024-01-07T02:22:48;-0.40;99.90
4749;DHT22;2388;53.582;9.962;2024-01-07T02:25:14;-0.40;99.90
4749;DHT22;2388;53.582;9.962;2024-01-07T02:27:39;-0.30;99.90
4749;DHT22;2388;53.582;9.962;2024-01-07T02:30:05;-0.30;99.90
4749;DHT22;2388;53.582;9.962;2024-01-07T02:32:31;-0.30;99.90
4749;DHT22;2388;53.582;9.962;2024-01-07T02:34:59;-0.30;99.90
4749;DHT22;2388;53.582;9.962;2024-01-07T02:37:25;-0.30;99.90
4749;DHT22;2388;53.582;9.962;2024-01-07T02:39:51;-0.30;99.90
4749;DHT22;2388;53.582;9.962;2024-01-07T02:42:16;-0.30;99.90
4749;DHT22;2388;53.582;9.962;2024-01-07T02:44:41;-0.20;99.90
4749;DHT22;2388;53.582;9.962;2024-01-07T02:47:07;-0.20;99.90
4749;DHT22;2388;53.582;9.962;2024-01-07T02:49:32;-0.20;99.90
4749;DHT22;2388;53.582;9.962;2024-01-07T02:51:58;-0.20;99.90
4749;DHT22;2388;53.582;9.962;2024-01-07T02:54:23;-0.20;99.90
4749;DHT22;2388;53.582;9.962;2024-01-07T02:56:49;-0.10;99.90
4749;DHT22;2388;53.582;9.962;2024-01-07T02:59:14;-0.10;99.90
4749;DHT22;2388;53.582;9.962;2024-01-07T03:01:40;-0.10;99.90
4749;DHT22;2388;53.582;9.962;2024-01-07T03:04:11;-0.10;99.90
4749;DHT22;2388;53.582;9.962;2024-01-07T03:06:37;-0.10;99.90
4749;DHT22;2388;53.582;9.962;2024-01-07T03:09:03;-0.10;99.90
4749;DHT22;2388;53.582;9.962;2024-01-07T03:11:29;-0.10;99.90
4749;DHT22;2388;53.582;9.962;2024-01-07T03:13:58;-0.10;99.90
4749;DHT22;2388;53.582;9.962;2024-01-07T03:16:24;0.00;99.90
4749;DHT22;2388;53.582;9.962;2024-01-07T03:18:50;0.00;99.90
4749;DHT22;2388;53.582;9.962;2024-01-07T03:21:21;-0.10;99.90
4749;DHT22;2388;53.582;9.962;2024-01-07T03:23:47;-0.10;99.90
4749;DHT22;2388;53.582;9.962;2024-01-07T03:26:13;0.00;99.90
4749;DHT22;2388;53.582;9.962;2024-01-07T03:28:39;0.00;99.90
4749;DHT22;2388;53.582;9.962;2024-01-07T03:31:15;0.10;99.90
4749;DHT22;2388;53.582;9.962;2024-01-07T03:33:42;0.10;99.90
4749;DHT22;2388;53.582;9.962;2024-01-07T03:36:09;0.10;99.90
4749;DHT22;2388;53.582;9.962;2024-01-07T03:38:36;0.10;99.90
4749;DHT22;2388;53.582;9.962;2024-01-07T03:41:02;0.10;99.90
4749;DHT22;2388;53.582;9.962;2024-01-07T03:43:28;0.10;99.90
4749;DHT22;2388;53.582;9.962;2024-01-07T03:45:53;0.20;99.90
4749;DHT22;2388;53.582;9.962;2024-01-07T03:48:19;0.20;99.90
4749;DHT22;2388;53.582;9.962;2024-01-07T03:50:45;0.20;99.90
4749;DHT22;2388;53.582;9.962;2024-01-07T03:53:10;0.20;99.90
4749;DHT22;2388;53.582;9.962;2024-01-07T03:55:36;0.20;99.90
4749;DHT22;2388;53.582;9.962;2024-01-07T03:58:01;0.30;99.90
4749;DHT22;2388;53.582;9.962;2024-01-07T04:00:27;0.20;99.90
4749;DHT22;2388;53.582;9.962;2024-01-07T04:02:53;0.30;99.90
4749;DHT22;2388;53.582;9.962;2024-01-07T04:05:18;0.30;99.90
4749;DHT22;2388;53.582;9.962;2024-01-07T04:07:43;0.30;99.90
4749;DHT22;2388;53.582;9.962;2024-01-07T04:10:09;0.30;99.90
4749;DHT22;2388;53.582;9.962;2024-01-07T04:12:36;0.30;99.90
4749;DHT22;2388;53.582;9.962;2024-01-07T04:15:03;0.30;99.90
4749;DHT22;2388;53.582;9.962;2024-01-07T04:17:28;0.30;99.90
4749;DHT22;2388;53.582;9.962;2024-01-07T04:19:54;0.30;99.90
4749;DHT22;2388;53.582;9.962;2024-01-07T04:22:20;0.30;99.90
4749;DHT22;2388;53.582;9.962;2024-01-07T04:24:45;0.30;99.90
4749;DHT22;2388;53.582;9.962;2024-01-07T04:27:11;0.40;99.90
4749;DHT22;2388;53.582;9.962;2024-01-07T04:29:36;0.30;99.90
4749;DHT22;2388;53.582;9.962;2024-01-07T04:32:02;0.30;99.90
4749;DHT22;2388;53.582;9.962;2024-01-07T04:34:28;0.30;99.90
4749;DHT22;2388;53.582;9.962;2024-01-07T04:36:53;0.30;99.90
4749;DHT22;2388;53.582;9.962;2024-01-07T04:39:18;0.40;99.90
4749;DHT22;2388;53.582;9.962;2024-01-07T04:41:44;0.40;99.90
4749;DHT22;2388;53.582;9.962;2024-01-07T04:44:09;0.40;99.90
4749;DHT22;2388;53.582;9.962;2024-01-07T04:46:38;0.40;99.90
4749;DHT22;2388;53.582;9.962;2024-01-07T04:49:03;0.50;99.90
4749;DHT22;2388;53.582;9.962;2024-01-07T04:51:29;0.50;99.90
4749;DHT22;2388;53.582;9.962;2024-01-07T04:53:54;0.50;99.90
4749;DHT22;2388;53.582;9.962;2024-01-07T04:56:20;0.50;99.90
4749;DHT22;2388;53.582;9.962;2024-01-07T04:58:45;0.60;99.90
4749;DHT22;2388;53.582;9.962;2024-01-07T05:01:11;0.60;99.90
4749;DHT22;2388;53.582;9.962;2024-01-07T05:03:37;0.50;99.90
4749;DHT22;2388;53.582;9.962;2024-01-07T05:06:03;0.60;99.90
4749;DHT22;2388;53.582;9.962;2024-01-07T05:08:29;0.60;99.90
4749;DHT22;2388;53.582;9.962;2024-01-07T05:10:55;0.60;99.90
4749;DHT22;2388;53.582;9.962;2024-01-07T05:13:20;0.60;99.90
4749;DHT22;2388;53.582;9.962;2024-01-07T05:15:46;0.60;99.90
4749;DHT22;2388;53.582;9.962;2024-01-07T05:18:21;0.60;99.90
4749;DHT22;2388;53.582;9.962;2024-01-07T05:20:47;0.60;99.90
4749;DHT22;2388;53.582;9.962;2024-01-07T05:23:13;0.60;99.90
4749;DHT22;2388;53.582;9.962;2024-01-07T05:25:38;0.60;99.90
4749;DHT22;2388;53.582;9.962;2024-01-07T05:28:04;0.70;99.90
4749;DHT22;2388;53.582;9.962;2024-01-07T05:30:30;0.60;99.90
4749;DHT22;2388;53.582;9.962;2024-01-07T05:32:55;0.70;99.90
4749;DHT22;2388;53.582;9.962;2024-01-07T05:35:21;0.70;99.90
4749;DHT22;2388;53.582;9.962;2024-01-07T05:37:46;0.70;99.90
4749;DHT22;2388;53.582;9.962;2024-01-07T05:40:12;0.70;99.90
4749;DHT22;2388;53.582;9.962;2024-01-07T05:42:37;0.70;99.90
4749;DHT22;2388;53.582;9.962;2024-01-07T05:45:03;0.70;99.90
4749;DHT22;2388;53.582;9.962;2024-01-07T05:47:29;0.70;99.90
4749;DHT22;2388;53.582;9.962;2024-01-07T05:49:55;0.70;99.90
4749;DHT22;2388;53.582;9.962;2024-01-07T05:52:20;0.70;99.90
4749;DHT22;2388;53.582;9.962;2024-01-07T05:54:46;0.70;99.90
4749;DHT22;2388;53.582;9.962;2024-01-07T05:57:12;0.70;99.90
4749;DHT22;2388;53.582;9.962;2024-01-07T05:59:37;0.80;99.90
4749;DHT22;2388;53.582;9.962;2024-01-07T06:02:03;0.70;99.90
4749;DHT22;2388;53.582;9.962;2024-01-07T06:04:28;0.70;99.90
4749;DHT22;2388;53.582;9.962;2024-01-07T06:06:54;0.70;99.90
4749;DHT22;2388;53.582;9.962;2024-01-07T06:09:20;0.70;99.90
4749;DHT22;2388;53.582;9.962;2024-01-07T06:11:45;0.70;99.90
4749;DHT22;2388;53.582;9.962;2024-01-07T06:14:10;0.70;99.90
4749;DHT22;2388;53.582;9.962;2024-01-07T06:16:36;0.60;99.90
4749;DHT22;2388;53.582;9.962;2024-01-07T06:19:01;0.60;99.90
4749;DHT22;2388;53.582;9.962;2024-01-07T06:21:27;0.50;99.90
4749;DHT22;2388;53.582;9.962;2024-01-07T06:23:52;0.50;99.90
4749;DHT22;2388;53.582;9.962;2024-01-07T06:26:18;0.60;99.90
4749;DHT22;2388;53.582;9.962;2024-01-07T06:28:43;0.50;99.90
4749;DHT22;2388;53.582;9.962;2024-01-07T06:31:09;0.50;99.90
4749;DHT22;2388;53.582;9.962;2024-01-07T06:33:34;0.40;99.90
4749;DHT22;2388;53.582;9.962;2024-01-07T06:36:00;0.40;99.90
4749;DHT22;2388;53.582;9.962;2024-01-07T06:38:26;0.50;99.90
4749;DHT22;2388;53.582;9.962;2024-01-07T06:40:51;0.50;99.90
4749;DHT22;2388;53.582;9.962;2024-01-07T06:43:19;0.50;99.90
4749;DHT22;2388;53.582;9.962;2024-01-07T06:45:45;0.50;99.90
4749;DHT22;2388;53.582;9.962;2024-01-07T06:48:10;0.50;99.90
4749;DHT22;2388;53.582;9.962;2024-01-07T06:50:36;0.40;99.90
4749;DHT22;2388;53.582;9.962;2024-01-07T06:53:01;0.50;99.90
4749;DHT22;2388;53.582;9.962;2024-01-07T06:55:26;0.50;99.90
4749;DHT22;2388;53.582;9.962;2024-01-07T06:57:52;0.60;99.90
4749;DHT22;2388;53.582;9.962;2024-01-07T07:00:18;0.60;99.90
4749;DHT22;2388;53.582;9.962;2024-01-07T07:02:43;0.60;99.90
4749;DHT22;2388;53.582;9.962;2024-01-07T07:05:09;0.50;99.90
4749;DHT22;2388;53.582;9.962;2024-01-07T07:07:34;0.50;99.90
4749;DHT22;2388;53.582;9.962;2024-01-07T07:10:00;0.50;99.90
4749;DHT22;2388;53.582;9.962;2024-01-07T07:12:26;0.40;99.90
4749;DHT22;2388;53.582;9.962;2024-01-07T07:14:51;0.40;99.90
4749;DHT22;2388;53.582;9.962;2024-01-07T07:17:16;0.40;99.90
4749;DHT22;2388;53.582;9.962;2024-01-07T07:19:42;0.30;99.90
4749;DHT22;2388;53.582;9.962;2024-01-07T07:22:08;0.40;99.90
4749;DHT22;2388;53.582;9.962;2024-01-07T07:24:33;0.40;99.90
4749;DHT22;2388;53.582;9.962;2024-01-07T07:26:59;0.30;99.90
4749;DHT22;2388;53.582;9.962;2024-01-07T07:29:24;0.30;99.90
4749;DHT22;2388;53.582;9.962;2024-01-07T07:31:50;0.30;99.90
4749;DHT22;2388;53.582;9.962;2024-01-07T07:34:15;0.30;99.90
4749;DHT22;2388;53.582;9.962;2024-01-07T07:36:41;0.30;99.90
4749;DHT22;2388;53.582;9.962;2024-01-07T07:39:08;0.30;99.90
4749;DHT22;2388;53.582;9.962;2024-01-07T07:41:34;0.30;99.90
4749;DHT22;2388;53.582;9.962;2024-01-07T07:44:00;0.30;99.90
4749;DHT22;2388;53.582;9.962;2024-01-07T07:46:25;0.30;99.90
4749;DHT22;2388;53.582;9.962;2024-01-07T07:48:51;0.30;99.90
4749;DHT22;2388;53.582;9.962;2024-01-07T07:51:16;0.20;99.90
4749;DHT22;2388;53.582;9.962;2024-01-07T07:53:42;0.20;99.90
4749;DHT22;2388;53.582;9.962;2024-01-07T07:56:09;0.20;99.90
4749;DHT22;2388;53.582;9.962;2024-01-07T07:58:34;0.20;99.90
4749;DHT22;2388;53.582;9.962;2024-01-07T08:01:00;0.20;99.90
4749;DHT22;2388;53.582;9.962;2024-01-07T08:03:25;0.20;99.90
4749;DHT22;2388;53.582;9.962;2024-01-07T08:05:50;0.10;99.90
4749;DHT22;2388;53.582;9.962;2024-01-07T08:08:16;0.10;99.90
4749;DHT22;2388;53.582;9.962;2024-01-07T08:10:42;0.10;99.90
4749;DHT22;2388;53.582;9.962;2024-01-07T08:13:08;0.00;99.90
4749;DHT22;2388;53.582;9.962;2024-01-07T08:15:34;-0.10;99.90
4749;DHT22;2388;53.582;9.962;2024-01-07T08:18:00;-0.10;99.90
4749;DHT22;2388;53.582;9.962;2024-01-07T08:20:27;-0.20;99.90
4749;DHT22;2388;53.582;9.962;2024-01-07T08:22:53;-0.20;99.90
4749;DHT22;2388;53.582;9.962;2024-01-07T08:25:18;-0.20;99.90
4749;DHT22;2388;53.582;9.962;2024-01-07T08:27:44;-0.20;99.90
4749;DHT22;2388;53.582;9.962;2024-01-07T08:30:10;-0.20;99.90
4749;DHT22;2388;53.582;9.962;2024-01-07T08:32:39;-0.20;99.90
4749;DHT22;2388;53.582;9.962;2024-01-07T08:35:04;-0.30;99.90
4749;DHT22;2388;53.582;9.962;2024-01-07T08:37:30;-0.30;99.90
4749;DHT22;2388;53.582;9.962;2024-01-07T08:39:55;-0.30;99.90
4749;DHT22;2388;53.582;9.962;2024-01-07T08:42:21;-0.30;99.90
4749;DHT22;2388;53.582;9.962;2024-01-07T08:44:46;-0.30;99.90
4749;DHT22;2388;53.582;9.962;2024-01-07T08:47:12;-0.30;99.90
4749;DHT22;2388;53.582;9.962;2024-01-07T08:49:38;-0.40;99.90
4749;DHT22;2388;53.582;9.962;2024-01-07T08:52:04;-0.40;99.90
4749;DHT22;2388;53.582;9.962;2024-01-07T08:54:30;-0.40;99.90
4749;DHT22;2388;53.582;9.962;2024-01-07T08:56:55;-0.40;99.90
4749;DHT22;2388;53.582;9.962;2024-01-07T08:59:21;-0.40;99.90
4749;DHT22;2388;53.582;9.962;2024-01-07T09:01:46;-0.50;99.90
4749;DHT22;2388;53.582;9.962;2024-01-07T09:04:12;-0.60;99.90
4749;DHT22;2388;53.582;9.962;2024-01-07T09:06:38;-0.60;99.90
4749;DHT22;2388;53.582;9.962;2024-01-07T09:09:03;-0.60;99.90
4749;DHT22;2388;53.582;9.962;2024-01-07T09:11:32;-0.50;99.90
4749;DHT22;2388;53.582;9.962;2024-01-07T09:13:57;-0.60;99.90
4749;DHT22;2388;53.582;9.962;2024-01-07T09:16:23;-0.60;99.90
4749;DHT22;2388;53.582;9.962;2024-01-07T09:18:48;-0.60;99.90
4749;DHT22;2388;53.582;9.962;2024-01-07T09:21:14;-0.60;99.90
4749;DHT22;2388;53.582;9.962;2024-01-07T09:23:40;-0.60;99.90
4749;DHT22;2388;53.582;9.962;2024-01-07T09:26:07;-0.60;99.90
4749;DHT22;2388;53.582;9.962;2024-01-07T09:28:32;-0.70;99.90
4749;DHT22;2388;53.582;9.962;2024-01-07T09:30:58;-0.70;99.90
4749;DHT22;2388;53.582;9.962;2024-01-07T09:33:23;-0.80;99.90
4749;DHT22;2388;53.582;9.962;2024-01-07T09:35:52;-0.70;99.90
4749;DHT22;2388;53.582;9.962;2024-01-07T09:38:19;-0.70;99.90
4749;DHT22;2388;53.582;9.962;2024-01-07T09:40:45;-0.80;99.90
4749;DHT22;2388;53.582;9.962;2024-01-07T09:43:11;-0.80;99.90
4749;DHT22;2388;53.582;9.962;2024-01-07T09:45:38;-0.80;99.90
4749;DHT22;2388;53.582;9.962;2024-01-07T09:48:05;-0.80;99.90
4749;DHT22;2388;53.582;9.962;2024-01-07T09:50:30;-0.80;99.90
4749;DHT22;2388;53.582;9.962;2024-01-07T09:52:56;-0.70;99.90
4749;DHT22;2388;53.582;9.962;2024-01-07T09:55:33;-0.70;99.90
4749;DHT22;2388;53.582;9.962;2024-01-07T09:57:58;-0.60;99.90
4749;DHT22;2388;53.582;9.962;2024-01-07T10:00:26;-0.60;99.90
4749;DHT22;2388;53.582;9.962;2024-01-07T10:02:52;-0.60;99.90
4749;DHT22;2388;53.582;9.962;2024-01-07T10:05:18;-0.60;99.90
4749;DHT22;2388;53.582;9.962;2024-01-07T10:07:43;-0.60;99.90
4749;DHT22;2388;53.582;9.962;2024-01-07T10:10:16;-0.60;99.90
4749;DHT22;2388;53.582;9.962;2024-01-07T10:12:44;-0.60;99.90
4749;DHT22;2388;53.582;9.962;2024-01-07T10:15:10;-0.60;99.90
4749;DHT22;2388;53.582;9.962;2024-01-07T10:17:36;-0.60;99.90
4749;DHT22;2388;53.582;9.962;2024-01-07T10:20:02;-0.60;99.90
4749;DHT22;2388;53.582;9.962;2024-01-07T10:22:30;-0.60;99.90
4749;DHT22;2388;53.582;9.962;2024-01-07T10:24:55;-0.60;99.90
4749;DHT22;2388;53.582;9.962;2024-01-07T10:27:22;-0.60;99.90
4749;DHT22;2388;53.582;9.962;2024-01-07T10:29:48;-0.50;99.90
4749;DHT22;2388;53.582;9.962;2024-01-07T10:32:19;-0.50;99.90
4749;DHT22;2388;53.582;9.962;2024-01-07T10:34:46;-0.40;99.90
4749;DHT22;2388;53.582;9.962;2024-01-07T10:37:12;-0.40;99.90
4749;DHT22;2388;53.582;9.962;2024-01-07T10:39:38;-0.30;99.90
4749;DHT22;2388;53.582;9.962;2024-01-07T10:42:04;-0.30;99.90
4749;DHT22;2388;53.582;9.962;2024-01-07T10:44:31;-0.30;99.90
4749;DHT22;2388;53.582;9.962;2024-01-07T10:46:58;-0.20;99.90
4749;DHT22;2388;53.582;9.962;2024-01-07T10:49:25;-0.30;99.90
4749;DHT22;2388;53.582;9.962;2024-01-07T10:52:05;-0.40;99.90
4749;DHT22;2388;53.582;9.962;2024-01-07T10:54:32;-0.30;99.90
4749;DHT22;2388;53.582;9.962;2024-01-07T10:57:09;-0.30;99.90
4749;DHT22;2388;53.582;9.962;2024-01-07T10:59:37;-0.40;99.90
4749;DHT22;2388;53.582;9.962;2024-01-07T11:02:04;-0.40;99.90
4749;DHT22;2388;53.582;9.962;2024-01-07T11:07:39;-0.40;99.90
4749;DHT22;2388;53.582;9.962;2024-01-07T11:10:13;-0.40;99.90
4749;DHT22;2388;53.582;9.962;2024-01-07T11:12:40;-0.40;99.90
4749;DHT22;2388;53.582;9.962;2024-01-07T11:15:05;-0.40;99.90
4749;DHT22;2388;53.582;9.962;2024-01-07T11:20:20;-0.30;99.90
4749;DHT22;2388;53.582;9.962;2024-01-07T11:22:46;-0.30;99.90
4749;DHT22;2388;53.582;9.962;2024-01-07T11:25:32;-0.30;99.90
4749;DHT22;2388;53.582;9.962;2024-01-07T11:28:01;-0.20;99.90
4749;DHT22;2388;53.582;9.962;2024-01-07T11:30:26;-0.30;99.90
4749;DHT22;2388;53.582;9.962;2024-01-07T11:32:59;-0.20;99.90
4749;DHT22;2388;53.582;9.962;2024-01-07T11:35:54;-0.20;99.90
4749;DHT22;2388;53.582;9.962;2024-01-07T11:38:20;-0.20;99.90
4749;DHT22;2388;53.582;9.962;2024-01-07T11:40:47;-0.30;99.90
4749;DHT22;2388;53.582;9.962;2024-01-07T11:43:14;-0.20;99.90
4749;DHT22;2388;53.582;9.962;2024-01-07T11:45:39;-0.20;99.90
4749;DHT22;2388;53.582;9.962;2024-01-07T11:48:05;-0.20;99.90
4749;DHT22;2388;53.582;9.962;2024-01-07T11:50:31;-0.10;99.90
4749;DHT22;2388;53.582;9.962;2024-01-07T11:52:56;-0.20;99.90
4749;DHT22;2388;53.582;9.962;2024-01-07T11:55:22;-0.20;99.90
4749;DHT22;2388;53.582;9.962;2024-01-07T11:57:48;-0.10;99.90
4749;DHT22;2388;53.582;9.962;2024-01-07T12:00:14;-0.10;99.90
4749;DHT22;2388;53.582;9.962;2024-01-07T12:02:40;-0.10;99.90
4749;DHT22;2388;53.582;9.962;2024-01-07T12:05:05;-0.10;99.90
4749;DHT22;2388;53.582;9.962;2024-01-07T12:07:31;-0.10;99.90
4749;DHT22;2388;53.582;9.962;2024-01-07T12:09:57;-0.10;99.90
4749;DHT22;2388;53.582;9.962;2024-01-07T12:12:24;-0.10;99.90
4749;DHT22;2388;53.582;9.962;2024-01-07T12:14:50;-0.10;99.90
4749;DHT22;2388;53.582;9.962;2024-01-07T12:17:18;-0.10;99.90
4749;DHT22;2388;53.582;9.962;2024-01-07T12:19:44;0.00;99.90
4749;DHT22;2388;53.582;9.962;2024-01-07T12:22:09;0.00;99.90
4749;DHT22;2388;53.582;9.962;2024-01-07T12:24:35;0.00;99.90
4749;DHT22;2388;53.582;9.962;2024-01-07T12:27:07;0.10;99.90
4749;DHT22;2388;53.582;9.962;2024-01-07T12:29:33;0.10;99.90
4749;DHT22;2388;53.582;9.962;2024-01-07T12:31:59;0.10;99.90
4749;DHT22;2388;53.582;9.962;2024-01-07T12:34:25;0.10;99.90
4749;DHT22;2388;53.582;9.962;2024-01-07T12:36:51;0.10;99.90
4749;DHT22;2388;53.582;9.962;2024-01-07T12:39:20;0.20;99.90
4749;DHT22;2388;53.582;9.962;2024-01-07T12:41:46;0.30;99.90
4749;DHT22;2388;53.582;9.962;2024-01-07T12:44:12;0.40;99.90
4749;DHT22;2388;53.582;9.962;2024-01-07T12:46:38;0.30;99.90
4749;DHT22;2388;53.582;9.962;2024-01-07T12:49:03;0.40;99.90
4749;DHT22;2388;53.582;9.962;2024-01-07T12:51:29;0.40;99.90
4749;DHT22;2388;53.582;9.962;2024-01-07T12:53:54;0.20;99.90
4749;DHT22;2388;53.582;9.962;2024-01-07T12:56:22;0.20;99.90
4749;DHT22;2388;53.582;9.962;2024-01-07T12:58:47;0.20;99.90
4749;DHT22;2388;53.582;9.962;2024-01-07T13:01:13;0.10;99.90
4749;DHT22;2388;53.582;9.962;2024-01-07T13:03:39;0.00;99.90
4749;DHT22;2388;53.582;9.962;2024-01-07T13:06:05;0.00;99.90
4749;DHT22;2388;53.582;9.962;2024-01-07T13:08:31;0.00;99.90
4749;DHT22;2388;53.582;9.962;2024-01-07T13:10:58;0.00;99.90
4749;DHT22;2388;53.582;9.962;2024-01-07T13:13:24;-0.10;99.90
4749;DHT22;2388;53.582;9.962;2024-01-07T13:15:50;-0.20;99.90
4749;DHT22;2388;53.582;9.962;2024-01-07T13:18:16;-0.10;99.90
4749;DHT22;2388;53.582;9.962;2024-01-07T13:20:41;0.00;99.90
4749;DHT22;2388;53.582;9.962;2024-01-07T13:23:07;0.10;99.90
4749;DHT22;2388;53.582;9.962;2024-01-07T13:25:32;0.20;99.90
4749;DHT22;2388;53.582;9.962;2024-01-07T13:27:58;0.30;99.90
4749;DHT22;2388;53.582;9.962;2024-01-07T13:30:24;0.30;99.90
4749;DHT22;2388;53.582;9.962;2024-01-07T13:32:50;0.10;99.90
4749;DHT22;2388;53.582;9.962;2024-01-07T13:35:17;0.10;99.90
4749;DHT22;2388;53.582;9.962;2024-01-07T13:37:42;0.20;99.90
4749;DHT22;2388;53.582;9.962;2024-01-07T13:40:09;0.10;99.90
4749;DHT22;2388;53.582;9.962;2024-01-07T13:42:39;0.00;99.90
4749;DHT22;2388;53.582;9.962;2024-01-07T13:45:05;-0.10;99.90
4749;DHT22;2388;53.582;9.962;2024-01-07T13:47:31;-0.30;99.90
4749;DHT22;2388;53.582;9.962;2024-01-07T13:49:57;-0.30;99.90
4749;DHT22;2388;53.582;9.962;2024-01-07T13:52:23;-0.30;99.90
4749;DHT22;2388;53.582;9.962;2024-01-07T13:54:48;-0.40;99.90
4749;DHT22;2388;53.582;9.962;2024-01-07T13:57:14;-0.40;99.90
4749;DHT22;2388;53.582;9.962;2024-01-07T13:59:39;-0.40;99.90
4749;DHT22;2388;53.582;9.962;2024-01-07T14:02:08;-0.50;99.90
4749;DHT22;2388;53.582;9.962;2024-01-07T14:04:34;-0.60;99.90
4749;DHT22;2388;53.582;9.962;2024-01-07T14:07:00;-0.60;99.90
4749;DHT22;2388;53.582;9.962;2024-01-07T14:09:25;-0.60;99.90
4749;DHT22;2388;53.582;9.962;2024-01-07T14:11:52;-0.80;99.90
4749;DHT22;2388;53.582;9.962;2024-01-07T14:14:17;-0.90;99.90
4749;DHT22;2388;53.582;9.962;2024-01-07T14:16:44;-0.90;99.90
4749;DHT22;2388;53.582;9.962;2024-01-07T14:19:10;-1.00;99.90
4749;DHT22;2388;53.582;9.962;2024-01-07T14:21:36;-1.00;99.90
4749;DHT22;2388;53.582;9.962;2024-01-07T14:24:01;-1.10;99.90
4749;DHT22;2388;53.582;9.962;2024-01-07T14:26:28;-1.10;99.90
4749;DHT22;2388;53.582;9.962;2024-01-07T14:28:53;-1.10;99.90
4749;DHT22;2388;53.582;9.962;2024-01-07T14:31:19;-1.20;99.90
4749;DHT22;2388;53.582;9.962;2024-01-07T14:33:44;-1.20;99.90
4749;DHT22;2388;53.582;9.962;2024-01-07T14:36:10;-1.40;99.90
4749;DHT22;2388;53.582;9.962;2024-01-07T14:38:45;-1.40;99.90
4749;DHT22;2388;53.582;9.962;2024-01-07T14:41:15;-1.40;99.90
4749;DHT22;2388;53.582;9.962;2024-01-07T14:43:41;-1.40;99.90
4749;DHT22;2388;53.582;9.962;2024-01-07T14:46:07;-1.40;99.90
4749;DHT22;2388;53.582;9.962;2024-01-07T14:48:34;-1.40;99.90
4749;DHT22;2388;53.582;9.962;2024-01-07T14:50:59;-1.30;99.90
4749;DHT22;2388;53.582;9.962;2024-01-07T14:53:25;-1.40;99.90
4749;DHT22;2388;53.582;9.962;2024-01-07T14:55:51;-1.40;99.90
4749;DHT22;2388;53.582;9.962;2024-01-07T14:58:17;-1.40;99.90
4749;DHT22;2388;53.582;9.962;2024-01-07T15:00:43;-1.40;99.90
4749;DHT22;2388;53.582;9.962;2024-01-07T15:03:09;-1.40;99.90
4749;DHT22;2388;53.582;9.962;2024-01-07T15:05:34;-1.40;99.90
4749;DHT22;2388;53.582;9.962;2024-01-07T15:08:00;-1.40;99.90
4749;DHT22;2388;53.582;9.962;2024-01-07T15:10:26;-1.40;99.90
4749;DHT22;2388;53.582;9.962;2024-01-07T15:12:51;-1.40;99.90
4749;DHT22;2388;53.582;9.962;2024-01-07T15:15:17;-1.40;99.90
4749;DHT22;2388;53.582;9.962;2024-01-07T15:17:44;-1.40;99.90
4749;DHT22;2388;53.582;9.962;2024-01-07T15:20:10;-1.40;99.90
4749;DHT22;2388;53.582;9.962;2024-01-07T15:22:35;-1.40;99.90
4749;DHT22;2388;53.582;9.962;2024-01-07T15:25:01;-1.40;99.90
4749;DHT22;2388;53.582;9.962;2024-01-07T15:27:27;-1.40;99.90
4749;DHT22;2388;53.582;9.962;2024-01-07T15:29:54;-1.40;99.90
4749;DHT22;2388;53.582;9.962;2024-01-07T15:32:19;-1.40;99.90
4749;DHT22;2388;53.582;9.962;2024-01-07T15:34:45;-1.40;99.90
4749;DHT22;2388;53.582;9.962;2024-01-07T15:37:10;-1.40;99.90
4749;DHT22;2388;53.582;9.962;2024-01-07T15:39:36;-1.50;99.90
4749;DHT22;2388;53.582;9.962;2024-01-07T15:42:02;-1.60;99.90
4749;DHT22;2388;53.582;9.962;2024-01-07T15:44:27;-1.60;99.90
4749;DHT22;2388;53.582;9.962;2024-01-07T15:46:53;-1.60;99.90
4749;DHT22;2388;53.582;9.962;2024-01-07T15:49:19;-1.60;99.90
4749;DHT22;2388;53.582;9.962;2024-01-07T15:51:44;-1.60;99.90
4749;DHT22;2388;53.582;9.962;2024-01-07T15:54:10;-1.60;99.90
4749;DHT22;2388;53.582;9.962;2024-01-07T15:56:35;-1.60;99.90
4749;DHT22;2388;53.582;9.962;2024-01-07T15:59:01;-1.60;99.90
4749;DHT22;2388;53.582;9.962;2024-01-07T16:01:27;-1.70;99.90
4749;DHT22;2388;53.582;9.962;2024-01-07T16:03:53;-1.70;99.90
4749;DHT22;2388;53.582;9.962;2024-01-07T16:06:19;-1.70;99.90